sensor_id;sensor_type;location;lat;lon;timestamp;P1;durP1;ratioP1;P2;durP2;ratioP2
75680;SDS011;64294;49.176;16.626;2023-03-01T00:01:32;38.90;;;17.15;;
75680;SDS011;64294;49.176;16.626;2023-03-01T00:03:58;39.10;;;16.67;;
75680;SDS011;64294;49.176;16.626;2023-03-01T00:06:25;40.40;;;17.20;;
75680;SDS011;64294;49.176;16.626;2023-03-01T00:08:52;41.55;;;17.15;;
75680;SDS011;64294;49.176;16.626;2023-03-01T00:11:22;38.83;;;15.65;;
75680;SDS011;64294;49.176;16.626;2023-03-01T00:13:49;41.42;;;16.42;;
75680;SDS011;64294;49.176;16.626;2023-03-01T00:16:21;39.60;;;17.73;;
75680;SDS011;64294;49.176;16.626;2023-03-01T00:18:48;41.50;;;16.95;;
75680;SDS011;64294;49.176;16.626;2023-03-01T00:21:13;38.65;;;16.50;;
75680;SDS011;64294;49.176;16.626;2023-03-01T00:23:39;39.33;;;17.67;;
75680;SDS011;64294;49.176;16.626;2023-03-01T00:26:06;37.20;;;16.55;;
75680;SDS011;64294;49.176;16.626;2023-03-01T00:28:33;39.05;;;16.30;;
75680;SDS011;64294;49.176;16.626;2023-03-01T00:31:02;38.95;;;16.65;;
75680;SDS011;64294;49.176;16.626;2023-03-01T00:33:31;39.42;;;15.90;;
75680;SDS011;64294;49.176;16.626;2023-03-01T00:35:57;38.38;;;16.70;;
75680;SDS011;64294;49.176;16.626;2023-03-01T00:38:27;39.28;;;15.98;;
75680;SDS011;64294;49.176;16.626;2023-03-01T00:40:52;35.30;;;16.75;;
75680;SDS011;64294;49.176;16.626;2023-03-01T00:43:18;36.63;;;16.95;;
75680;SDS011;64294;49.176;16.626;2023-03-01T00:45:43;39.50;;;17.42;;
75680;SDS011;64294;49.176;16.626;2023-03-01T00:48:12;40.15;;;15.93;;
75680;SDS011;64294;49.176;16.626;2023-03-01T00:50:38;41.42;;;17.77;;
75680;SDS011;64294;49.176;16.626;2023-03-01T00:53:03;38.40;;;17.17;;
75680;SDS011;64294;49.176;16.626;2023-03-01T00:55:30;41.13;;;16.48;;
75680;SDS011;64294;49.176;16.626;2023-03-01T00:57:55;35.80;;;16.23;;
75680;SDS011;64294;49.176;16.626;2023-03-01T01:00:24;35.85;;;16.00;;
75680;SDS011;64294;49.176;16.626;2023-03-01T01:02:52;39.45;;;16.88;;
75680;SDS011;64294;49.176;16.626;2023-03-01T01:05:18;40.33;;;15.10;;
75680;SDS011;64294;49.176;16.626;2023-03-01T01:07:45;36.63;;;15.90;;
75680;SDS011;64294;49.176;16.626;2023-03-01T01:10:11;32.38;;;15.50;;
75680;SDS011;64294;49.176;16.626;2023-03-01T01:12:41;37.22;;;15.73;;
75680;SDS011;64294;49.176;16.626;2023-03-01T01:15:08;38.85;;;17.20;;
75680;SDS011;64294;49.176;16.626;2023-03-01T01:17:38;36.08;;;15.52;;
75680;SDS011;64294;49.176;16.626;2023-03-01T01:20:06;39.13;;;16.55;;
75680;SDS011;64294;49.176;16.626;2023-03-01T01:22:35;45.35;;;16.60;;
75680;SDS011;64294;49.176;16.626;2023-03-01T01:25:03;37.03;;;16.50;;
75680;SDS011;64294;49.176;16.626;2023-03-01T01:27:32;37.95;;;15.82;;
75680;SDS011;64294;49.176;16.626;2023-03-01T01:29:58;39.70;;;16.23;;
75680;SDS011;64294;49.176;16.626;2023-03-01T01:32:23;35.75;;;16.13;;
75680;SDS011;64294;49.176;16.626;2023-03-01T01:34:48;36.67;;;15.65;;
75680;SDS011;64294;49.176;16.626;2023-03-01T01:37:14;39.85;;;16.35;;
75680;SDS011;64294;49.176;16.626;2023-03-01T01:39:39;33.72;;;15.00;;
75680;SDS011;64294;49.176;16.626;2023-03-01T01:42:05;39.47;;;15.63;;
75680;SDS011;64294;49.176;16.626;2023-03-01T01:44:30;42.40;;;15.10;;
75680;SDS011;64294;49.176;16.626;2023-03-01T01:46:59;34.70;;;14.27;;
75680;SDS011;64294;49.176;16.626;2023-03-01T01:49:30;35.28;;;14.85;;
75680;SDS011;64294;49.176;16.626;2023-03-01T01:52:02;32.22;;;14.35;;
75680;SDS011;64294;49.176;16.626;2023-03-01T01:57:11;36.83;;;15.23;;
75680;SDS011;64294;49.176;16.626;2023-03-01T01:59:41;33.35;;;15.48;;
75680;SDS011;64294;49.176;16.626;2023-03-01T02:02:11;34.65;;;14.70;;
75680;SDS011;64294;49.176;16.626;2023-03-01T02:04:37;35.63;;;15.00;;
75680;SDS011;64294;49.176;16.626;2023-03-01T02:07:14;33.97;;;15.75;;
75680;SDS011;64294;49.176;16.626;2023-03-01T02:09:48;34.72;;;14.63;;
75680;SDS011;64294;49.176;16.626;2023-03-01T02:12:19;36.90;;;14.80;;
75680;SDS011;64294;49.176;16.626;2023-03-01T02:14:50;35.80;;;14.90;;
75680;SDS011;64294;49.176;16.626;2023-03-01T02:17:16;35.78;;;14.30;;
75680;SDS011;64294;49.176;16.626;2023-03-01T02:23:01;35.50;;;14.30;;
75680;SDS011;64294;49.176;16.626;2023-03-01T02:25:38;33.67;;;14.07;;
75680;SDS011;64294;49.176;16.626;2023-03-01T02:30:43;37.53;;;15.27;;
75680;SDS011;64294;49.176;16.626;2023-03-01T02:33:34;35.10;;;13.85;;
75680;SDS011;64294;49.176;16.626;2023-03-01T02:36:06;32.97;;;13.98;;
75680;SDS011;64294;49.176;16.626;2023-03-01T02:38:53;31.08;;;13.73;;
75680;SDS011;64294;49.176;16.626;2023-03-01T02:41:26;33.83;;;14.35;;
75680;SDS011;64294;49.176;16.626;2023-03-01T02:43:55;35.50;;;15.60;;
75680;SDS011;64294;49.176;16.626;2023-03-01T02:46:22;29.30;;;13.25;;
75680;SDS011;64294;49.176;16.626;2023-03-01T02:48:51;33.70;;;14.05;;
75680;SDS011;64294;49.176;16.626;2023-03-01T02:54:05;34.38;;;14.40;;
75680;SDS011;64294;49.176;16.626;2023-03-01T02:56:38;34.70;;;14.48;;
75680;SDS011;64294;49.176;16.626;2023-03-01T02:59:04;33.58;;;13.77;;
75680;SDS011;64294;49.176;16.626;2023-03-01T03:01:34;31.77;;;14.77;;
75680;SDS011;64294;49.176;16.626;2023-03-01T03:04:09;34.22;;;15.50;;
75680;SDS011;64294;49.176;16.626;2023-03-01T03:06:36;31.25;;;14.90;;
75680;SDS011;64294;49.176;16.626;2023-03-01T03:09:05;32.92;;;15.52;;
75680;SDS011;64294;49.176;16.626;2023-03-01T03:11:31;41.40;;;15.90;;
75680;SDS011;64294;49.176;16.626;2023-03-01T03:13:57;32.75;;;14.52;;
75680;SDS011;64294;49.176;16.626;2023-03-01T03:16:22;33.53;;;14.38;;
75680;SDS011;64294;49.176;16.626;2023-03-01T03:18:48;33.05;;;13.60;;
75680;SDS011;64294;49.176;16.626;2023-03-01T03:21:14;31.25;;;14.35;;
75680;SDS011;64294;49.176;16.626;2023-03-01T03:23:41;34.78;;;14.10;;
75680;SDS011;64294;49.176;16.626;2023-03-01T03:26:07;32.78;;;14.43;;
75680;SDS011;64294;49.176;16.626;2023-03-01T03:28:33;32.45;;;13.93;;
75680;SDS011;64294;49.176;16.626;2023-03-01T03:31:07;31.40;;;13.20;;
75680;SDS011;64294;49.176;16.626;2023-03-01T03:33:33;33.35;;;13.48;;
75680;SDS011;64294;49.176;16.626;2023-03-01T03:35:58;32.83;;;14.40;;
75680;SDS011;64294;49.176;16.626;2023-03-01T03:38:24;29.88;;;14.40;;
75680;SDS011;64294;49.176;16.626;2023-03-01T03:41:01;33.85;;;14.63;;
75680;SDS011;64294;49.176;16.626;2023-03-01T03:43:33;37.67;;;15.63;;
75680;SDS011;64294;49.176;16.626;2023-03-01T03:46:02;38.75;;;15.32;;
75680;SDS011;64294;49.176;16.626;2023-03-01T03:48:34;37.38;;;15.00;;
75680;SDS011;64294;49.176;16.626;2023-03-01T03:51:01;31.45;;;14.65;;
75680;SDS011;64294;49.176;16.626;2023-03-01T03:53:27;39.65;;;15.57;;
75680;SDS011;64294;49.176;16.626;2023-03-01T03:55:54;33.67;;;15.57;;
75680;SDS011;64294;49.176;16.626;2023-03-01T03:58:20;36.03;;;15.25;;
75680;SDS011;64294;49.176;16.626;2023-03-01T04:00:48;35.20;;;15.50;;
75680;SDS011;64294;49.176;16.626;2023-03-01T04:03:16;35.38;;;15.52;;
75680;SDS011;64294;49.176;16.626;2023-03-01T04:05:46;39.75;;;15.98;;
75680;SDS011;64294;49.176;16.626;2023-03-01T04:08:14;36.70;;;15.23;;
75680;SDS011;64294;49.176;16.626;2023-03-01T04:10:41;38.42;;;17.27;;
75680;SDS011;64294;49.176;16.626;2023-03-01T04:13:12;38.42;;;16.75;;
75680;SDS011;64294;49.176;16.626;2023-03-01T04:15:39;37.28;;;17.25;;
75680;SDS011;64294;49.176;16.626;2023-03-01T04:18:05;40.92;;;17.42;;
75680;SDS011;64294;49.176;16.626;2023-03-01T04:20:32;45.00;;;18.73;;
75680;SDS011;64294;49.176;16.626;2023-03-01T04:23:06;43.08;;;17.58;;
75680;SDS011;64294;49.176;16.626;2023-03-01T04:25:55;42.67;;;17.00;;
75680;SDS011;64294;49.176;16.626;2023-03-01T04:28:26;45.38;;;17.80;;
75680;SDS011;64294;49.176;16.626;2023-03-01T04:30:54;43.10;;;17.02;;
75680;SDS011;64294;49.176;16.626;2023-03-01T04:33:21;43.17;;;17.40;;
75680;SDS011;64294;49.176;16.626;2023-03-01T04:35:47;40.88;;;17.45;;
75680;SDS011;64294;49.176;16.626;2023-03-01T04:38:22;41.15;;;17.45;;
75680;SDS011;64294;49.176;16.626;2023-03-01T04:40:47;41.28;;;16.35;;
75680;SDS011;64294;49.176;16.626;2023-03-01T04:43:13;40.58;;;16.10;;
75680;SDS011;64294;49.176;16.626;2023-03-01T04:45:39;35.72;;;15.40;;
75680;SDS011;64294;49.176;16.626;2023-03-01T04:48:05;34.80;;;15.82;;
75680;SDS011;64294;49.176;16.626;2023-03-01T04:50:30;38.47;;;16.45;;
75680;SDS011;64294;49.176;16.626;2023-03-01T04:52:56;37.55;;;15.35;;
75680;SDS011;64294;49.176;16.626;2023-03-01T04:55:25;39.10;;;15.70;;
75680;SDS011;64294;49.176;16.626;2023-03-01T04:57:52;33.33;;;14.77;;
75680;SDS011;64294;49.176;16.626;2023-03-01T05:00:21;36.97;;;14.05;;
75680;SDS011;64294;49.176;16.626;2023-03-01T05:02:51;40.45;;;16.73;;
75680;SDS011;64294;49.176;16.626;2023-03-01T05:05:26;35.33;;;14.18;;
75680;SDS011;64294;49.176;16.626;2023-03-01T05:07:57;39.78;;;15.43;;
75680;SDS011;64294;49.176;16.626;2023-03-01T05:10:25;39.65;;;14.73;;
75680;SDS011;64294;49.176;16.626;2023-03-01T05:12:51;38.17;;;13.73;;
75680;SDS011;64294;49.176;16.626;2023-03-01T05:15:21;33.22;;;14.52;;
75680;SDS011;64294;49.176;16.626;2023-03-01T05:17:53;33.58;;;13.93;;
75680;SDS011;64294;49.176;16.626;2023-03-01T05:20:19;31.05;;;13.73;;
75680;SDS011;64294;49.176;16.626;2023-03-01T05:22:49;36.42;;;13.40;;
75680;SDS011;64294;49.176;16.626;2023-03-01T05:25:19;34.97;;;13.82;;
75680;SDS011;64294;49.176;16.626;2023-03-01T05:27:46;36.05;;;15.20;;
75680;SDS011;64294;49.176;16.626;2023-03-01T05:30:12;35.15;;;14.65;;
75680;SDS011;64294;49.176;16.626;2023-03-01T05:32:42;29.63;;;13.32;;
75680;SDS011;64294;49.176;16.626;2023-03-01T05:35:12;33.25;;;13.32;;
75680;SDS011;64294;49.176;16.626;2023-03-01T05:37:43;34.83;;;14.43;;
75680;SDS011;64294;49.176;16.626;2023-03-01T05:40:20;28.58;;;13.30;;
75680;SDS011;64294;49.176;16.626;2023-03-01T05:42:49;32.35;;;13.77;;
75680;SDS011;64294;49.176;16.626;2023-03-01T05:45:18;33.20;;;14.30;;
75680;SDS011;64294;49.176;16.626;2023-03-01T05:47:44;31.48;;;14.60;;
75680;SDS011;64294;49.176;16.626;2023-03-01T05:50:12;35.33;;;14.20;;
75680;SDS011;64294;49.176;16.626;2023-03-01T05:52:57;29.25;;;13.70;;
75680;SDS011;64294;49.176;16.626;2023-03-01T05:55:24;32.40;;;13.90;;
75680;SDS011;64294;49.176;16.626;2023-03-01T05:57:50;30.20;;;13.88;;
75680;SDS011;64294;49.176;16.626;2023-03-01T06:00:17;30.92;;;12.90;;
75680;SDS011;64294;49.176;16.626;2023-03-01T06:02:44;30.27;;;13.10;;
75680;SDS011;64294;49.176;16.626;2023-03-01T06:05:10;37.20;;;13.15;;
75680;SDS011;64294;49.176;16.626;2023-03-01T06:07:41;31.67;;;14.38;;
75680;SDS011;64294;49.176;16.626;2023-03-01T06:10:07;31.77;;;14.27;;
75680;SDS011;64294;49.176;16.626;2023-03-01T06:12:38;35.40;;;13.68;;
75680;SDS011;64294;49.176;16.626;2023-03-01T06:15:05;31.58;;;13.88;;
75680;SDS011;64294;49.176;16.626;2023-03-01T06:17:34;33.40;;;14.23;;
75680;SDS011;64294;49.176;16.626;2023-03-01T06:20:04;33.28;;;13.77;;
75680;SDS011;64294;49.176;16.626;2023-03-01T06:22:32;37.13;;;15.43;;
75680;SDS011;64294;49.176;16.626;2023-03-01T06:25:00;36.38;;;15.40;;
75680;SDS011;64294;49.176;16.626;2023-03-01T06:27:26;36.33;;;14.50;;
75680;SDS011;64294;49.176;16.626;2023-03-01T06:29:51;35.38;;;15.43;;
75680;SDS011;64294;49.176;16.626;2023-03-01T06:32:17;34.95;;;14.60;;
75680;SDS011;64294;49.176;16.626;2023-03-01T06:34:43;30.83;;;15.07;;
75680;SDS011;64294;49.176;16.626;2023-03-01T06:37:09;39.38;;;16.08;;
75680;SDS011;64294;49.176;16.626;2023-03-01T06:39:34;38.88;;;21.73;;
75680;SDS011;64294;49.176;16.626;2023-03-01T06:42:00;45.88;;;24.55;;
75680;SDS011;64294;49.176;16.626;2023-03-01T06:44:25;45.00;;;24.17;;
75680;SDS011;64294;49.176;16.626;2023-03-01T06:46:51;43.83;;;22.15;;
75680;SDS011;64294;49.176;16.626;2023-03-01T06:49:17;38.83;;;21.38;;
75680;SDS011;64294;49.176;16.626;2023-03-01T06:51:43;35.38;;;18.00;;
75680;SDS011;64294;49.176;16.626;2023-03-01T06:54:09;32.30;;;19.55;;
75680;SDS011;64294;49.176;16.626;2023-03-01T06:56:35;41.83;;;23.45;;
75680;SDS011;64294;49.176;16.626;2023-03-01T06:59:01;40.15;;;22.15;;
75680;SDS011;64294;49.176;16.626;2023-03-01T07:01:29;41.28;;;20.90;;
75680;SDS011;64294;49.176;16.626;2023-03-01T07:03:59;38.38;;;20.95;;
75680;SDS011;64294;49.176;16.626;2023-03-01T07:06:24;41.75;;;21.65;;
75680;SDS011;64294;49.176;16.626;2023-03-01T07:08:49;43.03;;;23.38;;
75680;SDS011;64294;49.176;16.626;2023-03-01T07:11:15;44.50;;;23.88;;
75680;SDS011;64294;49.176;16.626;2023-03-01T07:13:41;42.42;;;25.67;;
75680;SDS011;64294;49.176;16.626;2023-03-01T07:16:06;42.97;;;26.85;;
75680;SDS011;64294;49.176;16.626;2023-03-01T07:18:32;41.00;;;23.27;;
75680;SDS011;64294;49.176;16.626;2023-03-01T07:20:58;36.78;;;23.52;;
75680;SDS011;64294;49.176;16.626;2023-03-01T07:23:23;36.08;;;23.15;;
75680;SDS011;64294;49.176;16.626;2023-03-01T07:25:54;34.38;;;21.42;;
75680;SDS011;64294;49.176;16.626;2023-03-01T07:28:21;30.10;;;20.35;;
75680;SDS011;64294;49.176;16.626;2023-03-01T07:30:47;32.80;;;19.20;;
75680;SDS011;64294;49.176;16.626;2023-03-01T07:33:13;30.15;;;18.67;;
75680;SDS011;64294;49.176;16.626;2023-03-01T07:35:38;27.92;;;19.02;;
75680;SDS011;64294;49.176;16.626;2023-03-01T07:38:04;34.40;;;19.08;;
75680;SDS011;64294;49.176;16.626;2023-03-01T07:40:29;30.45;;;18.95;;
75680;SDS011;64294;49.176;16.626;2023-03-01T07:42:59;24.00;;;17.33;;
75680;SDS011;64294;49.176;16.626;2023-03-01T07:45:24;28.15;;;18.67;;
75680;SDS011;64294;49.176;16.626;2023-03-01T07:47:51;29.38;;;18.17;;
75680;SDS011;64294;49.176;16.626;2023-03-01T07:50:16;22.75;;;16.15;;
75680;SDS011;64294;49.176;16.626;2023-03-01T07:52:45;23.55;;;17.10;;
75680;SDS011;64294;49.176;16.626;2023-03-01T07:55:11;25.05;;;18.40;;
75680;SDS011;64294;49.176;16.626;2023-03-01T07:57:36;22.40;;;17.30;;
75680;SDS011;64294;49.176;16.626;2023-03-01T08:00:02;25.85;;;18.63;;
75680;SDS011;64294;49.176;16.626;2023-03-01T08:02:28;23.98;;;18.67;;
75680;SDS011;64294;49.176;16.626;2023-03-01T08:04:54;23.98;;;19.20;;
75680;SDS011;64294;49.176;16.626;2023-03-01T08:07:19;24.45;;;18.80;;
75680;SDS011;64294;49.176;16.626;2023-03-01T08:09:45;24.50;;;18.50;;
75680;SDS011;64294;49.176;16.626;2023-03-01T08:12:10;22.48;;;17.48;;
75680;SDS011;64294;49.176;16.626;2023-03-01T08:14:35;22.52;;;18.05;;
75680;SDS011;64294;49.176;16.626;2023-03-01T08:17:01;25.13;;;18.85;;
75680;SDS011;64294;49.176;16.626;2023-03-01T08:19:28;26.38;;;18.23;;
75680;SDS011;64294;49.176;16.626;2023-03-01T08:21:54;24.15;;;17.98;;
75680;SDS011;64294;49.176;16.626;2023-03-01T08:24:19;25.08;;;18.05;;
75680;SDS011;64294;49.176;16.626;2023-03-01T08:26:45;23.42;;;18.40;;
75680;SDS011;64294;49.176;16.626;2023-03-01T08:29:10;26.23;;;18.98;;
75680;SDS011;64294;49.176;16.626;2023-03-01T08:31:37;22.52;;;17.35;;
75680;SDS011;64294;49.176;16.626;2023-03-01T08:34:05;25.67;;;18.90;;
75680;SDS011;64294;49.176;16.626;2023-03-01T08:36:37;23.83;;;17.80;;
75680;SDS011;64294;49.176;16.626;2023-03-01T08:39:04;25.67;;;19.42;;
75680;SDS011;64294;49.176;16.626;2023-03-01T08:41:34;26.10;;;18.60;;
75680;SDS011;64294;49.176;16.626;2023-03-01T08:44:00;25.95;;;19.10;;
75680;SDS011;64294;49.176;16.626;2023-03-01T08:46:30;30.40;;;17.85;;
75680;SDS011;64294;49.176;16.626;2023-03-01T08:48:57;26.50;;;18.92;;
75680;SDS011;64294;49.176;16.626;2023-03-01T08:51:23;25.60;;;19.17;;
75680;SDS011;64294;49.176;16.626;2023-03-01T08:53:49;22.30;;;18.15;;
75680;SDS011;64294;49.176;16.626;2023-03-01T08:56:15;27.38;;;18.55;;
75680;SDS011;64294;49.176;16.626;2023-03-01T08:58:48;29.85;;;18.85;;
75680;SDS011;64294;49.176;16.626;2023-03-01T09:01:15;29.05;;;18.45;;
75680;SDS011;64294;49.176;16.626;2023-03-01T09:03:42;26.23;;;17.50;;
75680;SDS011;64294;49.176;16.626;2023-03-01T09:06:11;29.17;;;18.13;;
75680;SDS011;64294;49.176;16.626;2023-03-01T09:08:42;31.50;;;18.58;;
75680;SDS011;64294;49.176;16.626;2023-03-01T09:11:11;25.85;;;17.75;;
75680;SDS011;64294;49.176;16.626;2023-03-01T09:13:38;27.90;;;18.30;;
75680;SDS011;64294;49.176;16.626;2023-03-01T09:16:05;27.10;;;16.98;;
75680;SDS011;64294;49.176;16.626;2023-03-01T09:18:32;24.48;;;15.43;;
75680;SDS011;64294;49.176;16.626;2023-03-01T09:21:04;28.90;;;15.82;;
75680;SDS011;64294;49.176;16.626;2023-03-01T09:23:36;26.13;;;15.52;;
75680;SDS011;64294;49.176;16.626;2023-03-01T09:26:04;23.52;;;14.65;;
75680;SDS011;64294;49.176;16.626;2023-03-01T09:28:33;22.90;;;15.00;;
75680;SDS011;64294;49.176;16.626;2023-03-01T09:30:59;20.88;;;13.55;;
75680;SDS011;64294;49.176;16.626;2023-03-01T09:33:30;23.55;;;13.63;;
75680;SDS011;64294;49.176;16.626;2023-03-01T09:36:02;22.85;;;13.38;;
75680;SDS011;64294;49.176;16.626;2023-03-01T09:38:30;23.67;;;13.77;;
75680;SDS011;64294;49.176;16.626;2023-03-01T09:40:56;23.33;;;13.85;;
75680;SDS011;64294;49.176;16.626;2023-03-01T09:46:12;22.63;;;14.02;;
75680;SDS011;64294;49.176;16.626;2023-03-01T09:48:46;30.05;;;15.07;;
75680;SDS011;64294;49.176;16.626;2023-03-01T09:51:38;21.52;;;14.13;;
75680;SDS011;64294;49.176;16.626;2023-03-01T09:54:03;25.02;;;14.52;;
75680;SDS011;64294;49.176;16.626;2023-03-01T09:56:34;24.95;;;14.57;;
75680;SDS011;64294;49.176;16.626;2023-03-01T10:04:41;23.50;;;13.23;;
75680;SDS011;64294;49.176;16.626;2023-03-01T10:09:38;25.52;;;13.43;;
75680;SDS011;64294;49.176;16.626;2023-03-01T10:12:11;25.08;;;12.85;;
75680;SDS011;64294;49.176;16.626;2023-03-01T10:20:16;25.17;;;14.00;;
75680;SDS011;64294;49.176;16.626;2023-03-01T10:22:50;24.08;;;13.57;;
75680;SDS011;64294;49.176;16.626;2023-03-01T10:25:23;23.08;;;13.20;;
75680;SDS011;64294;49.176;16.626;2023-03-01T10:30:57;24.10;;;13.27;;
75680;SDS011;64294;49.176;16.626;2023-03-01T10:33:27;24.98;;;13.93;;
75680;SDS011;64294;49.176;16.626;2023-03-01T10:35:56;24.33;;;13.60;;
75680;SDS011;64294;49.176;16.626;2023-03-01T10:38:22;24.67;;;13.90;;
75680;SDS011;64294;49.176;16.626;2023-03-01T10:40:52;24.48;;;14.13;;
75680;SDS011;64294;49.176;16.626;2023-03-01T10:43:21;23.58;;;13.90;;
75680;SDS011;64294;49.176;16.626;2023-03-01T10:45:48;28.38;;;15.65;;
75680;SDS011;64294;49.176;16.626;2023-03-01T10:48:26;31.27;;;16.25;;
75680;SDS011;64294;49.176;16.626;2023-03-01T10:53:28;30.83;;;17.20;;
75680;SDS011;64294;49.176;16.626;2023-03-01T10:56:04;32.17;;;17.70;;
75680;SDS011;64294;49.176;16.626;2023-03-01T10:58:35;32.58;;;18.17;;
75680;SDS011;64294;49.176;16.626;2023-03-01T11:01:24;35.13;;;18.33;;
75680;SDS011;64294;49.176;16.626;2023-03-01T11:06:32;31.33;;;17.58;;
75680;SDS011;64294;49.176;16.626;2023-03-01T11:09:13;32.65;;;17.05;;
75680;SDS011;64294;49.176;16.626;2023-03-01T11:11:49;31.42;;;16.90;;
75680;SDS011;64294;49.176;16.626;2023-03-01T11:14:21;33.20;;;18.15;;
75680;SDS011;64294;49.176;16.626;2023-03-01T11:16:48;33.03;;;18.98;;
75680;SDS011;64294;49.176;16.626;2023-03-01T11:19:26;32.88;;;18.08;;
75680;SDS011;64294;49.176;16.626;2023-03-01T11:24:39;28.83;;;16.38;;
75680;SDS011;64294;49.176;16.626;2023-03-01T11:27:54;34.47;;;16.80;;
75680;SDS011;64294;49.176;16.626;2023-03-01T11:35:44;33.47;;;17.77;;
75680;SDS011;64294;49.176;16.626;2023-03-01T11:38:26;29.90;;;17.25;;
75680;SDS011;64294;49.176;16.626;2023-03-01T11:40:54;33.83;;;17.33;;
75680;SDS011;64294;49.176;16.626;2023-03-01T11:43:26;29.70;;;17.67;;
75680;SDS011;64294;49.176;16.626;2023-03-01T12:02:49;30.67;;;17.92;;
75680;SDS011;64294;49.176;16.626;2023-03-01T12:08:00;29.75;;;17.95;;
75680;SDS011;64294;49.176;16.626;2023-03-01T12:10:44;28.48;;;17.60;;
75680;SDS011;64294;49.176;16.626;2023-03-01T12:18:52;30.65;;;17.80;;
75680;SDS011;64294;49.176;16.626;2023-03-01T12:21:42;34.63;;;17.38;;
75680;SDS011;64294;49.176;16.626;2023-03-01T12:32:40;30.00;;;16.05;;
75680;SDS011;64294;49.176;16.626;2023-03-01T12:35:52;29.85;;;16.52;;
75680;SDS011;64294;49.176;16.626;2023-03-01T12:38:28;24.02;;;15.65;;
75680;SDS011;64294;49.176;16.626;2023-03-01T12:49:14;25.27;;;15.65;;
75680;SDS011;64294;49.176;16.626;2023-03-01T12:51:50;19.38;;;12.95;;
75680;SDS011;64294;49.176;16.626;2023-03-01T12:54:22;21.27;;;13.65;;
75680;SDS011;64294;49.176;16.626;2023-03-01T12:56:53;18.05;;;11.80;;
75680;SDS011;64294;49.176;16.626;2023-03-01T12:59:24;19.05;;;12.45;;
75680;SDS011;64294;49.176;16.626;2023-03-01T13:15:28;24.45;;;15.20;;
75680;SDS011;64294;49.176;16.626;2023-03-01T13:17:57;22.35;;;13.60;;
75680;SDS011;64294;49.176;16.626;2023-03-01T13:20:29;20.58;;;13.05;;
75680;SDS011;64294;49.176;16.626;2023-03-01T13:34:03;20.58;;;12.27;;
75680;SDS011;64294;49.176;16.626;2023-03-01T13:39:03;20.90;;;11.48;;
75680;SDS011;64294;49.176;16.626;2023-03-01T13:44:37;17.42;;;9.98;;
75680;SDS011;64294;49.176;16.626;2023-03-01T13:49:52;22.42;;;11.90;;
75680;SDS011;64294;49.176;16.626;2023-03-01T13:55:13;17.85;;;10.52;;
75680;SDS011;64294;49.176;16.626;2023-03-01T13:57:57;18.23;;;10.27;;
75680;SDS011;64294;49.176;16.626;2023-03-01T14:00:31;16.38;;;10.10;;
75680;SDS011;64294;49.176;16.626;2023-03-01T14:03:06;14.48;;;9.07;;
75680;SDS011;64294;49.176;16.626;2023-03-01T14:05:36;15.38;;;9.05;;
75680;SDS011;64294;49.176;16.626;2023-03-01T14:08:04;16.33;;;8.95;;
75680;SDS011;64294;49.176;16.626;2023-03-01T14:10:44;12.13;;;7.60;;
75680;SDS011;64294;49.176;16.626;2023-03-01T14:19:18;15.77;;;9.18;;
75680;SDS011;64294;49.176;16.626;2023-03-01T14:21:49;15.23;;;8.57;;
75680;SDS011;64294;49.176;16.626;2023-03-01T14:24:27;11.75;;;6.05;;
75680;SDS011;64294;49.176;16.626;2023-03-01T14:26:52;11.20;;;6.43;;
75680;SDS011;64294;49.176;16.626;2023-03-01T14:29:27;14.30;;;7.63;;
75680;SDS011;64294;49.176;16.626;2023-03-01T14:32:10;17.38;;;8.20;;
75680;SDS011;64294;49.176;16.626;2023-03-01T14:34:45;14.35;;;8.52;;
75680;SDS011;64294;49.176;16.626;2023-03-01T14:37:28;17.27;;;9.98;;
75680;SDS011;64294;49.176;16.626;2023-03-01T14:39:57;20.40;;;10.65;;
75680;SDS011;64294;49.176;16.626;2023-03-01T14:42:25;19.67;;;10.88;;
75680;SDS011;64294;49.176;16.626;2023-03-01T14:44:54;20.08;;;11.90;;
75680;SDS011;64294;49.176;16.626;2023-03-01T14:47:26;21.63;;;10.60;;
75680;SDS011;64294;49.176;16.626;2023-03-01T14:50:20;21.50;;;10.70;;
75680;SDS011;64294;49.176;16.626;2023-03-01T14:52:48;15.73;;;8.90;;
75680;SDS011;64294;49.176;16.626;2023-03-01T14:55:18;15.55;;;8.40;;
75680;SDS011;64294;49.176;16.626;2023-03-01T14:57:50;17.92;;;9.95;;
75680;SDS011;64294;49.176;16.626;2023-03-01T15:00:21;17.23;;;9.93;;
75680;SDS011;64294;49.176;16.626;2023-03-01T15:02:50;23.85;;;11.90;;
75680;SDS011;64294;49.176;16.626;2023-03-01T15:05:18;22.38;;;11.55;;
75680;SDS011;64294;49.176;16.626;2023-03-01T15:07:50;21.35;;;11.13;;
75680;SDS011;64294;49.176;16.626;2023-03-01T15:10:19;20.23;;;11.20;;
75680;SDS011;64294;49.176;16.626;2023-03-01T15:12:49;22.48;;;11.48;;
75680;SDS011;64294;49.176;16.626;2023-03-01T15:15:33;23.73;;;12.15;;
75680;SDS011;64294;49.176;16.626;2023-03-01T15:18:02;25.13;;;12.25;;
75680;SDS011;64294;49.176;16.626;2023-03-01T15:20:30;22.20;;;11.13;;
75680;SDS011;64294;49.176;16.626;2023-03-01T15:23:00;20.48;;;10.57;;
75680;SDS011;64294;49.176;16.626;2023-03-01T15:25:27;19.92;;;11.05;;
75680;SDS011;64294;49.176;16.626;2023-03-01T15:27:55;18.08;;;10.27;;
75680;SDS011;64294;49.176;16.626;2023-03-01T15:30:23;19.67;;;10.82;;
75680;SDS011;64294;49.176;16.626;2023-03-01T15:33:18;20.58;;;10.82;;
75680;SDS011;64294;49.176;16.626;2023-03-01T15:35:54;23.55;;;11.48;;
75680;SDS011;64294;49.176;16.626;2023-03-01T15:40:51;25.52;;;12.23;;
75680;SDS011;64294;49.176;16.626;2023-03-01T15:46:11;27.38;;;14.07;;
75680;SDS011;64294;49.176;16.626;2023-03-01T15:48:45;24.35;;;13.45;;
75680;SDS011;64294;49.176;16.626;2023-03-01T15:51:14;26.60;;;14.88;;
75680;SDS011;64294;49.176;16.626;2023-03-01T15:53:41;27.25;;;14.55;;
75680;SDS011;64294;49.176;16.626;2023-03-01T15:56:08;31.70;;;15.75;;
75680;SDS011;64294;49.176;16.626;2023-03-01T15:58:33;30.00;;;15.43;;
75680;SDS011;64294;49.176;16.626;2023-03-01T16:00:58;34.15;;;16.27;;
75680;SDS011;64294;49.176;16.626;2023-03-01T16:03:24;31.48;;;15.75;;
75680;SDS011;64294;49.176;16.626;2023-03-01T16:05:49;33.65;;;15.65;;
75680;SDS011;64294;49.176;16.626;2023-03-01T16:08:16;31.40;;;15.82;;
75680;SDS011;64294;49.176;16.626;2023-03-01T16:10:42;31.30;;;15.52;;
75680;SDS011;64294;49.176;16.626;2023-03-01T16:13:11;30.23;;;15.07;;
75680;SDS011;64294;49.176;16.626;2023-03-01T16:15:37;27.90;;;14.32;;
75680;SDS011;64294;49.176;16.626;2023-03-01T16:18:04;27.15;;;13.32;;
75680;SDS011;64294;49.176;16.626;2023-03-01T16:20:31;29.88;;;14.32;;
75680;SDS011;64294;49.176;16.626;2023-03-01T16:22:58;26.05;;;13.82;;
75680;SDS011;64294;49.176;16.626;2023-03-01T16:25:25;26.80;;;13.48;;
75680;SDS011;64294;49.176;16.626;2023-03-01T16:27:50;25.80;;;13.18;;
75680;SDS011;64294;49.176;16.626;2023-03-01T16:30:18;27.02;;;13.45;;
75680;SDS011;64294;49.176;16.626;2023-03-01T16:32:45;26.00;;;13.07;;
75680;SDS011;64294;49.176;16.626;2023-03-01T16:35:13;26.08;;;13.00;;